sensor_id;sensor_type;location;lat;lon;timestamp;pressure;altitude;pressure_sealevel;temperature;humidity
76553;BME280;65395;53.168;18.156;2024-03-08T00:02:18;102039.76;;;-1.26;82.22
76553;BME280;65395;53.168;18.156;2024-03-08T00:04:46;102040.86;;;-1.29;82.25
76553;BME280;65395;53.168;18.156;2024-03-08T00:07:12;102036.65;;;-1.31;82.42
76553;BME280;65395;53.168;18.156;2024-03-08T00:09:40;102034.85;;;-1.32;82.36
76553;BME280;65395;53.168;18.156;2024-03-08T00:12:07;102034.52;;;-1.35;82.45
76553;BME280;65395;53.168;18.156;2024-03-08T00:14:34;102030.33;;;-1.36;82.63
76553;BME280;65395;53.168;18.156;2024-03-08T00:17:04;102028.90;;;-1.37;82.67
76553;BME280;65395;53.168;18.156;2024-03-08T00:19:30;102029.59;;;-1.37;82.84
76553;BME280;65395;53.168;18.156;2024-03-08T00:21:57;102030.75;;;-1.38;82.84
76553;BME280;65395;53.168;18.156;2024-03-08T00:24:24;102030.11;;;-1.38;82.99
76553;BME280;65395;53.168;18.156;2024-03-08T00:26:51;102026.44;;;-1.40;83.10
76553;BME280;65395;53.168;18.156;2024-03-08T00:29:20;102029.72;;;-1.41;82.95
76553;BME280;65395;53.168;18.156;2024-03-08T00:31:48;102027.15;;;-1.44;83.04
76553;BME280;65395;53.168;18.156;2024-03-08T00:34:15;102031.17;;;-1.48;83.04
76553;BME280;65395;53.168;18.156;2024-03-08T00:36:42;102029.14;;;-1.51;82.90
76553;BME280;65395;53.168;18.156;2024-03-08T00:39:10;102028.88;;;-1.55;83.12
76553;BME280;65395;53.168;18.156;2024-03-08T00:41:38;102024.70;;;-1.58;83.26
76553;BME280;65395;53.168;18.156;2024-03-08T00:44:05;102022.98;;;-1.62;83.06
76553;BME280;65395;53.168;18.156;2024-03-08T00:46:32;102023.48;;;-1.67;83.12
76553;BME280;65395;53.168;18.156;2024-03-08T00:49:00;102023.38;;;-1.70;83.14
76553;BME280;65395;53.168;18.156;2024-03-08T00:51:27;102023.33;;;-1.71;83.49
76553;BME280;65395;53.168;18.156;2024-03-08T00:53:54;102023.21;;;-1.70;83.84
76553;BME280;65395;53.168;18.156;2024-03-08T00:56:22;102024.41;;;-1.69;83.94
76553;BME280;65395;53.168;18.156;2024-03-08T00:58:54;102022.74;;;-1.68;84.01
76553;BME280;65395;53.168;18.156;2024-03-08T01:01:21;102021.00;;;-1.68;83.99
76553;BME280;65395;53.168;18.156;2024-03-08T01:03:48;102018.65;;;-1.68;84.28
76553;BME280;65395;53.168;18.156;2024-03-08T01:06:15;102018.32;;;-1.67;84.27
76553;BME280;65395;53.168;18.156;2024-03-08T01:08:42;102019.92;;;-1.66;84.44
76553;BME280;65395;53.168;18.156;2024-03-08T01:11:09;102015.46;;;-1.64;84.63
76553;BME280;65395;53.168;18.156;2024-03-08T01:13:36;102014.30;;;-1.63;84.84
76553;BME280;65395;53.168;18.156;2024-03-08T01:16:03;102010.42;;;-1.62;84.78
76553;BME280;65395;53.168;18.156;2024-03-08T01:18:30;102010.39;;;-1.63;84.74
76553;BME280;65395;53.168;18.156;2024-03-08T01:20:57;102007.58;;;-1.65;84.64
76553;BME280;65395;53.168;18.156;2024-03-08T01:23:24;102004.69;;;-1.66;84.73
76553;BME280;65395;53.168;18.156;2024-03-08T01:25:51;102004.38;;;-1.69;84.58
76553;BME280;65395;53.168;18.156;2024-03-08T01:28:24;101999.69;;;-1.70;84.78
76553;BME280;65395;53.168;18.156;2024-03-08T01:30:51;101994.95;;;-1.70;84.88
76553;BME280;65395;53.168;18.156;2024-03-08T01:33:24;101996.88;;;-1.69;84.83
76553;BME280;65395;53.168;18.156;2024-03-08T01:35:52;101998.52;;;-1.68;84.97
76553;BME280;65395;53.168;18.156;2024-03-08T01:38:20;101998.59;;;-1.69;84.90
76553;BME280;65395;53.168;18.156;2024-03-08T01:40:48;101995.98;;;-1.67;85.15
76553;BME280;65395;53.168;18.156;2024-03-08T01:43:26;101999.80;;;-1.66;85.28
76553;BME280;65395;53.168;18.156;2024-03-08T01:45:55;101994.36;;;-1.65;85.36
76553;BME280;65395;53.168;18.156;2024-03-08T01:48:25;101997.54;;;-1.66;85.33
76553;BME280;65395;53.168;18.156;2024-03-08T01:50:54;101991.23;;;-1.65;85.57
76553;BME280;65395;53.168;18.156;2024-03-08T01:53:22;101988.80;;;-1.65;85.52
76553;BME280;65395;53.168;18.156;2024-03-08T01:55:49;101986.05;;;-1.65;85.64
76553;BME280;65395;53.168;18.156;2024-03-08T01:58:19;101985.92;;;-1.64;85.75
76553;BME280;65395;53.168;18.156;2024-03-08T02:00:48;101975.38;;;-1.64;85.84
76553;BME280;65395;53.168;18.156;2024-03-08T02:03:16;101976.83;;;-1.63;85.86
76553;BME280;65395;53.168;18.156;2024-03-08T02:05:43;101978.31;;;-1.62;85.86
76553;BME280;65395;53.168;18.156;2024-03-08T02:08:11;101973.98;;;-1.62;85.93
76553;BME280;65395;53.168;18.156;2024-03-08T02:10:41;101971.35;;;-1.62;85.97
76553;BME280;65395;53.168;18.156;2024-03-08T02:13:08;101971.75;;;-1.62;85.91
76553;BME280;65395;53.168;18.156;2024-03-08T02:15:53;101968.58;;;-1.61;85.95
76553;BME280;65395;53.168;18.156;2024-03-08T02:18:21;101963.45;;;-1.61;86.02
76553;BME280;65395;53.168;18.156;2024-03-08T02:20:51;101963.85;;;-1.64;85.97
76553;BME280;65395;53.168;18.156;2024-03-08T02:23:19;101959.21;;;-1.65;85.73
76553;BME280;65395;53.168;18.156;2024-03-08T02:25:47;101962.34;;;-1.65;85.98
76553;BME280;65395;53.168;18.156;2024-03-08T02:28:15;101962.02;;;-1.67;85.87
76553;BME280;65395;53.168;18.156;2024-03-08T02:30:41;101960.95;;;-1.70;85.57
76553;BME280;65395;53.168;18.156;2024-03-08T02:33:08;101960.70;;;-1.74;85.71
76553;BME280;65395;53.168;18.156;2024-03-08T02:35:36;101956.84;;;-1.78;85.61
76553;BME280;65395;53.168;18.156;2024-03-08T02:38:03;101953.61;;;-1.82;85.49
76553;BME280;65395;53.168;18.156;2024-03-08T02:40:30;101955.19;;;-1.86;85.52
76553;BME280;65395;53.168;18.156;2024-03-08T02:42:58;101953.17;;;-1.89;85.59
76553;BME280;65395;53.168;18.156;2024-03-08T02:45:25;101955.42;;;-1.89;85.76
76553;BME280;65395;53.168;18.156;2024-03-08T02:47:52;101955.51;;;-1.90;85.88
76553;BME280;65395;53.168;18.156;2024-03-08T02:50:19;101955.26;;;-1.92;85.83
76553;BME280;65395;53.168;18.156;2024-03-08T02:52:46;101954.41;;;-1.95;85.86
76553;BME280;65395;53.168;18.156;2024-03-08T02:55:13;101952.07;;;-1.99;85.91
76553;BME280;65395;53.168;18.156;2024-03-08T02:57:43;101954.58;;;-2.02;85.96
76553;BME280;65395;53.168;18.156;2024-03-08T03:00:14;101951.27;;;-2.06;85.81
76553;BME280;65395;53.168;18.156;2024-03-08T03:02:42;101954.37;;;-2.10;85.80
76553;BME280;65395;53.168;18.156;2024-03-08T03:05:09;101952.90;;;-2.14;85.73
76553;BME280;65395;53.168;18.156;2024-03-08T03:07:38;101955.50;;;-2.17;85.95
76553;BME280;65395;53.168;18.156;2024-03-08T03:10:05;101956.48;;;-2.18;86.09
76553;BME280;65395;53.168;18.156;2024-03-08T03:12:33;101953.50;;;-2.20;86.30
76553;BME280;65395;53.168;18.156;2024-03-08T03:15:00;101950.83;;;-2.19;86.56
76553;BME280;65395;53.168;18.156;2024-03-08T03:17:28;101951.57;;;-2.17;86.49
76553;BME280;65395;53.168;18.156;2024-03-08T03:19:55;101950.95;;;-2.17;86.66
76553;BME280;65395;53.168;18.156;2024-03-08T03:22:22;101946.25;;;-2.16;86.70
76553;BME280;65395;53.168;18.156;2024-03-08T03:24:49;101945.71;;;-2.16;86.84
76553;BME280;65395;53.168;18.156;2024-03-08T03:27:18;101947.91;;;-2.16;86.96
76553;BME280;65395;53.168;18.156;2024-03-08T03:29:46;101944.96;;;-2.14;87.07
76553;BME280;65395;53.168;18.156;2024-03-08T03:32:13;101944.59;;;-2.12;87.23
76553;BME280;65395;53.168;18.156;2024-03-08T03:34:40;101942.32;;;-2.10;87.07
76553;BME280;65395;53.168;18.156;2024-03-08T03:37:10;101942.29;;;-2.10;87.21
76553;BME280;65395;53.168;18.156;2024-03-08T03:39:39;101939.05;;;-2.09;87.26
76553;BME280;65395;53.168;18.156;2024-03-08T03:42:15;101937.31;;;-2.09;87.19
76553;BME280;65395;53.168;18.156;2024-03-08T03:44:47;101937.63;;;-2.09;87.29
76553;BME280;65395;53.168;18.156;2024-03-08T03:47:15;101940.83;;;-2.08;87.40
76553;BME280;65395;53.168;18.156;2024-03-08T03:49:42;101923.48;;;-2.13;87.40
76553;BME280;65395;53.168;18.156;2024-03-08T03:52:09;101936.97;;;-2.06;87.50
76553;BME280;65395;53.168;18.156;2024-03-08T03:54:36;101935.56;;;-2.04;87.48
76553;BME280;65395;53.168;18.156;2024-03-08T03:57:04;101936.16;;;-2.02;87.56
76553;BME280;65395;53.168;18.156;2024-03-08T03:59:31;101932.24;;;-1.99;87.55
76553;BME280;65395;53.168;18.156;2024-03-08T04:01:57;101934.23;;;-1.95;87.65
76553;BME280;65395;53.168;18.156;2024-03-08T04:04:24;101936.73;;;-1.93;87.70
76553;BME280;65395;53.168;18.156;2024-03-08T04:06:51;101936.09;;;-1.90;87.78
76553;BME280;65395;53.168;18.156;2024-03-08T04:09:18;101933.14;;;-1.89;87.55
76553;BME280;65395;53.168;18.156;2024-03-08T04:11:49;101936.86;;;-1.85;87.87
76553;BME280;65395;53.168;18.156;2024-03-08T04:14:19;101933.96;;;-1.81;87.79
76553;BME280;65395;53.168;18.156;2024-03-08T04:16:46;101934.16;;;-1.77;87.97
76553;BME280;65395;53.168;18.156;2024-03-08T04:19:15;101936.41;;;-1.71;87.93
76553;BME280;65395;53.168;18.156;2024-03-08T04:21:41;101935.86;;;-1.66;88.03
76553;BME280;65395;53.168;18.156;2024-03-08T04:24:08;101933.94;;;-1.61;88.05
76553;BME280;65395;53.168;18.156;2024-03-08T04:26:35;101932.39;;;-1.57;87.94
76553;BME280;65395;53.168;18.156;2024-03-08T04:29:02;101930.08;;;-1.55;87.91
76553;BME280;65395;53.168;18.156;2024-03-08T04:31:30;101921.04;;;-1.57;87.92
76553;BME280;65395;53.168;18.156;2024-03-08T04:33:57;101925.62;;;-1.50;87.96
76553;BME280;65395;53.168;18.156;2024-03-08T04:36:24;101923.39;;;-1.47;87.94
76553;BME280;65395;53.168;18.156;2024-03-08T04:38:51;101921.36;;;-1.45;88.09
76553;BME280;65395;53.168;18.156;2024-03-08T04:41:18;101922.44;;;-1.42;88.04
76553;BME280;65395;53.168;18.156;2024-03-08T04:43:45;101920.30;;;-1.38;88.05
76553;BME280;65395;53.168;18.156;2024-03-08T04:46:12;101917.54;;;-1.35;88.11
76553;BME280;65395;53.168;18.156;2024-03-08T04:48:38;101916.27;;;-1.32;88.06
76553;BME280;65395;53.168;18.156;2024-03-08T04:51:05;101914.66;;;-1.30;88.03
76553;BME280;65395;53.168;18.156;2024-03-08T04:53:32;101913.58;;;-1.28;88.05
76553;BME280;65395;53.168;18.156;2024-03-08T04:56:00;101913.48;;;-1.26;88.03
76553;BME280;65395;53.168;18.156;2024-03-08T04:58:35;101909.34;;;-1.24;87.98
76553;BME280;65395;53.168;18.156;2024-03-08T05:01:02;101911.44;;;-1.22;87.90
76553;BME280;65395;53.168;18.156;2024-03-08T05:03:29;101910.64;;;-1.20;87.99
76553;BME280;65395;53.168;18.156;2024-03-08T05:05:56;101909.85;;;-1.17;88.08
76553;BME280;65395;53.168;18.156;2024-03-08T05:08:23;101911.19;;;-1.15;87.91
76553;BME280;65395;53.168;18.156;2024-03-08T05:10:50;101912.76;;;-1.14;87.99
76553;BME280;65395;53.168;18.156;2024-03-08T05:13:17;101914.36;;;-1.13;87.90
76553;BME280;65395;53.168;18.156;2024-03-08T05:15:48;101914.12;;;-1.11;87.87
76553;BME280;65395;53.168;18.156;2024-03-08T05:18:16;101914.66;;;-1.10;87.91
76553;BME280;65395;53.168;18.156;2024-03-08T05:20:43;101914.74;;;-1.09;87.88
76553;BME280;65395;53.168;18.156;2024-03-08T05:23:10;101914.66;;;-1.07;87.90
76553;BME280;65395;53.168;18.156;2024-03-08T05:25:37;101914.05;;;-1.04;87.97
76553;BME280;65395;53.168;18.156;2024-03-08T05:28:04;101911.88;;;-1.03;87.84
76553;BME280;65395;53.168;18.156;2024-03-08T05:30:31;101915.20;;;-1.02;87.71
76553;BME280;65395;53.168;18.156;2024-03-08T05:32:58;101914.98;;;-1.01;87.84
76553;BME280;65395;53.168;18.156;2024-03-08T05:35:25;101912.42;;;-0.98;87.88
76553;BME280;65395;53.168;18.156;2024-03-08T05:37:52;101912.44;;;-0.97;87.77
76553;BME280;65395;53.168;18.156;2024-03-08T05:40:19;101909.48;;;-0.95;87.64
76553;BME280;65395;53.168;18.156;2024-03-08T05:42:46;101908.36;;;-0.93;87.64
76553;BME280;65395;53.168;18.156;2024-03-08T05:45:13;101913.02;;;-0.90;87.66
76553;BME280;65395;53.168;18.156;2024-03-08T05:47:41;101914.08;;;-0.89;87.56
76553;BME280;65395;53.168;18.156;2024-03-08T05:50:08;101915.11;;;-0.86;87.58
76553;BME280;65395;53.168;18.156;2024-03-08T05:52:37;101915.30;;;-0.86;87.50
76553;BME280;65395;53.168;18.156;2024-03-08T05:55:05;101913.72;;;-0.86;87.48
76553;BME280;65395;53.168;18.156;2024-03-08T05:57:34;101918.14;;;-0.85;87.22
76553;BME280;65395;53.168;18.156;2024-03-08T06:00:01;101915.94;;;-0.87;87.36
76553;BME280;65395;53.168;18.156;2024-03-08T06:02:28;101915.38;;;-0.86;87.32
76553;BME280;65395;53.168;18.156;2024-03-08T06:04:55;101913.98;;;-0.86;87.28
76553;BME280;65395;53.168;18.156;2024-03-08T06:07:22;101915.77;;;-0.87;87.24
76553;BME280;65395;53.168;18.156;2024-03-08T06:09:49;101916.30;;;-0.86;87.33
76553;BME280;65395;53.168;18.156;2024-03-08T06:12:15;101918.30;;;-0.82;87.38
76553;BME280;65395;53.168;18.156;2024-03-08T06:14:45;101915.48;;;-0.79;87.49
76553;BME280;65395;53.168;18.156;2024-03-08T06:17:12;101915.80;;;-0.75;87.44
76553;BME280;65395;53.168;18.156;2024-03-08T06:19:39;101914.69;;;-0.75;87.23
76553;BME280;65395;53.168;18.156;2024-03-08T06:22:06;101918.85;;;-0.73;87.25
76553;BME280;65395;53.168;18.156;2024-03-08T06:24:33;101916.19;;;-0.76;87.17
76553;BME280;65395;53.168;18.156;2024-03-08T06:27:03;101916.88;;;-0.75;87.31
76553;BME280;65395;53.168;18.156;2024-03-08T06:29:30;101920.46;;;-0.75;87.20
76553;BME280;65395;53.168;18.156;2024-03-08T06:31:57;101921.96;;;-0.77;87.19
76553;BME280;65395;53.168;18.156;2024-03-08T06:34:24;101915.83;;;-0.76;87.10
76553;BME280;65395;53.168;18.156;2024-03-08T06:36:51;101919.66;;;-0.71;87.22
76553;BME280;65395;53.168;18.156;2024-03-08T06:39:19;101922.33;;;-0.69;87.11
76553;BME280;65395;53.168;18.156;2024-03-08T06:41:46;101920.02;;;-0.69;86.98
76553;BME280;65395;53.168;18.156;2024-03-08T06:44:13;101920.15;;;-0.65;87.22
76553;BME280;65395;53.168;18.156;2024-03-08T06:46:40;101922.58;;;-0.62;87.07
76553;BME280;65395;53.168;18.156;2024-03-08T06:49:07;101919.33;;;-0.64;86.90
76553;BME280;65395;53.168;18.156;2024-03-08T06:51:35;101922.52;;;-0.63;86.89
76553;BME280;65395;53.168;18.156;2024-03-08T06:54:02;101922.02;;;-0.59;86.91
76553;BME280;65395;53.168;18.156;2024-03-08T06:56:35;101916.99;;;-0.56;86.87
76553;BME280;65395;53.168;18.156;2024-03-08T06:59:02;101918.31;;;-0.53;86.84
76553;BME280;65395;53.168;18.156;2024-03-08T07:01:29;101920.89;;;-0.47;86.87
76553;BME280;65395;53.168;18.156;2024-03-08T07:03:58;101919.68;;;-0.38;87.07
76553;BME280;65395;53.168;18.156;2024-03-08T07:06:26;101920.13;;;-0.31;86.92
76553;BME280;65395;53.168;18.156;2024-03-08T07:08:53;101922.40;;;-0.24;86.73
76553;BME280;65395;53.168;18.156;2024-03-08T07:11:20;101917.98;;;-0.19;86.72
76553;BME280;65395;53.168;18.156;2024-03-08T07:13:47;101918.49;;;-0.13;86.38
76553;BME280;65395;53.168;18.156;2024-03-08T07:16:13;101918.08;;;-0.10;86.09
76553;BME280;65395;53.168;18.156;2024-03-08T07:18:40;101917.48;;;-0.05;86.26
76553;BME280;65395;53.168;18.156;2024-03-08T07:21:10;101919.18;;;-0.00;86.31
76553;BME280;65395;53.168;18.156;2024-03-08T07:23:37;101917.98;;;0.06;86.13
76553;BME280;65395;53.168;18.156;2024-03-08T07:26:15;101915.83;;;0.13;86.03
76553;BME280;65395;53.168;18.156;2024-03-08T07:28:43;101916.89;;;0.20;85.80
76553;BME280;65395;53.168;18.156;2024-03-08T07:31:10;101920.54;;;0.25;85.70
76553;BME280;65395;53.168;18.156;2024-03-08T07:33:56;101916.90;;;0.34;85.74
76553;BME280;65395;53.168;18.156;2024-03-08T07:36:25;101919.61;;;0.43;85.73
76553;BME280;65395;53.168;18.156;2024-03-08T07:38:52;101917.61;;;0.52;85.76
76553;BME280;65395;53.168;18.156;2024-03-08T07:41:19;101915.92;;;0.62;85.65
76553;BME280;65395;53.168;18.156;2024-03-08T07:43:46;101909.61;;;0.66;85.15
76553;BME280;65395;53.168;18.156;2024-03-08T07:46:13;101909.91;;;0.70;85.30
76553;BME280;65395;53.168;18.156;2024-03-08T07:48:40;101906.86;;;0.67;85.04
76553;BME280;65395;53.168;18.156;2024-03-08T07:51:07;101908.61;;;0.67;85.01
76553;BME280;65395;53.168;18.156;2024-03-08T07:53:35;101908.60;;;0.69;85.05
76553;BME280;65395;53.168;18.156;2024-03-08T07:56:03;101905.70;;;0.72;85.27
76553;BME280;65395;53.168;18.156;2024-03-08T07:58:31;101905.84;;;0.80;85.27
76553;BME280;65395;53.168;18.156;2024-03-08T08:00:58;101906.36;;;0.85;85.18
76553;BME280;65395;53.168;18.156;2024-03-08T08:03:25;101904.65;;;0.89;85.07
76553;BME280;65395;53.168;18.156;2024-03-08T08:05:52;101904.40;;;0.93;84.74
76553;BME280;65395;53.168;18.156;2024-03-08T08:08:20;101902.25;;;0.93;84.70
76553;BME280;65395;53.168;18.156;2024-03-08T08:10:47;101901.02;;;0.95;84.72
76553;BME280;65395;53.168;18.156;2024-03-08T08:13:14;101898.39;;;0.95;84.54
76553;BME280;65395;53.168;18.156;2024-03-08T08:15:42;101898.84;;;0.86;84.12
76553;BME280;65395;53.168;18.156;2024-03-08T08:18:09;101898.96;;;0.73;84.23
76553;BME280;65395;53.168;18.156;2024-03-08T08:20:36;101897.16;;;0.66;84.61
76553;BME280;65395;53.168;18.156;2024-03-08T08:23:04;101898.30;;;0.62;84.99
76553;BME280;65395;53.168;18.156;2024-03-08T08:25:31;101897.98;;;0.62;84.89
76553;BME280;65395;53.168;18.156;2024-03-08T08:28:01;101896.98;;;0.63;84.88
76553;BME280;65395;53.168;18.156;2024-03-08T08:30:30;101898.33;;;0.62;84.81
76553;BME280;65395;53.168;18.156;2024-03-08T08:32:59;101895.58;;;0.62;84.77
76553;BME280;65395;53.168;18.156;2024-03-08T08:35:27;101895.70;;;0.62;84.80
76553;BME280;65395;53.168;18.156;2024-03-08T08:37:55;101892.51;;;0.63;84.64
76553;BME280;65395;53.168;18.156;2024-03-08T08:40:22;101890.88;;;0.65;84.63
76553;BME280;65395;53.168;18.156;2024-03-08T08:42:49;101891.88;;;0.69;84.69
76553;BME280;65395;53.168;18.156;2024-03-08T08:45:16;101888.67;;;0.74;84.68
76553;BME280;65395;53.168;18.156;2024-03-08T08:47:44;101885.15;;;0.78;84.50
76553;BME280;65395;53.168;18.156;2024-03-08T08:50:11;101886.59;;;0.80;84.25
76553;BME280;65395;53.168;18.156;2024-03-08T08:52:39;101887.38;;;0.84;84.61
76553;BME280;65395;53.168;18.156;2024-03-08T08:55:06;101886.52;;;0.89;84.53
76553;BME280;65395;53.168;18.156;2024-03-08T08:57:33;101884.10;;;0.96;84.53
76553;BME280;65395;53.168;18.156;2024-03-08T09:00:00;101882.88;;;1.03;84.27
76553;BME280;65395;53.168;18.156;2024-03-08T09:02:27;101877.65;;;1.08;84.00
76553;BME280;65395;53.168;18.156;2024-03-08T09:04:54;101877.42;;;1.14;83.98
76553;BME280;65395;53.168;18.156;2024-03-08T09:07:21;101875.73;;;1.20;83.47
76553;BME280;65395;53.168;18.156;2024-03-08T09:09:48;101874.77;;;1.27;83.51
76553;BME280;65395;53.168;18.156;2024-03-08T09:12:15;101873.65;;;1.34;83.50
76553;BME280;65395;53.168;18.156;2024-03-08T09:14:42;101871.23;;;1.43;83.45
76553;BME280;65395;53.168;18.156;2024-03-08T09:17:09;101868.11;;;1.52;83.60
76553;BME280;65395;53.168;18.156;2024-03-08T09:19:36;101869.70;;;1.61;83.35
76553;BME280;65395;53.168;18.156;2024-03-08T09:22:04;101870.44;;;1.70;83.22
76553;BME280;65395;53.168;18.156;2024-03-08T09:24:31;101872.45;;;1.78;83.11
76553;BME280;65395;53.168;18.156;2024-03-08T09:26:58;101874.44;;;1.88;82.89
76553;BME280;65395;53.168;18.156;2024-03-08T09:29:26;101871.16;;;1.97;82.98
76553;BME280;65395;53.168;18.156;2024-03-08T09:31:53;101871.13;;;2.07;82.70
76553;BME280;65395;53.168;18.156;2024-03-08T09:34:20;101871.86;;;2.17;82.25
76553;BME280;65395;53.168;18.156;2024-03-08T09:36:47;101864.91;;;2.23;81.93
76553;BME280;65395;53.168;18.156;2024-03-08T09:39:14;101870.38;;;2.37;81.58
76553;BME280;65395;53.168;18.156;2024-03-08T09:41:43;101863.29;;;2.48;81.22
76553;BME280;65395;53.168;18.156;2024-03-08T09:44:11;101863.53;;;2.58;80.66
76553;BME280;65395;53.168;18.156;2024-03-08T09:46:38;101860.25;;;2.68;80.57
76553;BME280;65395;53.168;18.156;2024-03-08T09:49:07;101857.08;;;2.78;80.61
76553;BME280;65395;53.168;18.156;2024-03-08T09:51:35;101859.53;;;2.90;80.48
76553;BME280;65395;53.168;18.156;2024-03-08T09:54:02;101855.52;;;3.03;80.13
76553;BME280;65395;53.168;18.156;2024-03-08T09:56:32;101853.47;;;3.15;79.62
76553;BME280;65395;53.168;18.156;2024-03-08T09:59:00;101852.77;;;3.28;79.11
76553;BME280;65395;53.168;18.156;2024-03-08T10:01:47;101847.23;;;3.42;78.96
76553;BME280;65395;53.168;18.156;2024-03-08T10:04:14;101840.73;;;3.54;78.86
76553;BME280;65395;53.168;18.156;2024-03-08T10:06:41;101841.38;;;3.67;78.42
76553;BME280;65395;53.168;18.156;2024-03-08T10:09:08;101839.14;;;3.80;78.12
76553;BME280;65395;53.168;18.156;2024-03-08T10:11:36;101835.35;;;3.94;78.04
76553;BME280;65395;53.168;18.156;2024-03-08T10:14:04;101838.67;;;4.06;77.77
76553;BME280;65395;53.168;18.156;2024-03-08T10:16:33;101839.95;;;4.18;77.19
76553;BME280;65395;53.168;18.156;2024-03-08T10:19:00;101842.59;;;4.29;76.72
76553;BME280;65395;53.168;18.156;2024-03-08T10:21:27;101834.48;;;4.40;76.94
76553;BME280;65395;53.168;18.156;2024-03-08T10:23:56;101836.61;;;4.53;76.81
76553;BME280;65395;53.168;18.156;2024-03-08T10:26:22;101835.86;;;4.65;76.23
76553;BME280;65395;53.168;18.156;2024-03-08T10:28:51;101831.83;;;4.77;75.12
76553;BME280;65395;53.168;18.156;2024-03-08T10:31:19;101832.80;;;4.87;74.19
76553;BME280;65395;53.168;18.156;2024-03-08T10:33:47;101831.56;;;4.97;73.83
76553;BME280;65395;53.168;18.156;2024-03-08T10:36:15;101827.91;;;5.06;73.40
76553;BME280;65395;53.168;18.156;2024-03-08T10:38:43;101825.48;;;5.16;72.26
76553;BME280;65395;53.168;18.156;2024-03-08T10:41:13;101824.05;;;5.24;71.67
76553;BME280;65395;53.168;18.156;2024-03-08T10:47:17;101819.09;;;5.42;70.70
76553;BME280;65395;53.168;18.156;2024-03-08T10:49:37;101818.94;;;5.55;70.74
76553;BME280;65395;53.168;18.156;2024-03-08T10:52:05;101818.27;;;5.66;70.64
76553;BME280;65395;53.168;18.156;2024-03-08T10:54:37;101814.75;;;5.77;68.51
76553;BME280;65395;53.168;18.156;2024-03-08T10:57:05;101815.33;;;5.86;69.24
76553;BME280;65395;53.168;18.156;2024-03-08T10:59:33;101808.95;;;5.97;69.18
76553;BME280;65395;53.168;18.156;2024-03-08T11:02:01;101808.03;;;6.09;69.29
76553;BME280;65395;53.168;18.156;2024-03-08T11:04:28;101809.48;;;6.22;67.73
76553;BME280;65395;53.168;18.156;2024-03-08T11:07:03;101803.42;;;6.31;67.65
76553;BME280;65395;53.168;18.156;2024-03-08T11:09:37;101803.17;;;6.43;68.20
76553;BME280;65395;53.168;18.156;2024-03-08T11:12:18;101799.52;;;6.55;68.19
76553;BME280;65395;53.168;18.156;2024-03-08T11:14:47;101803.99;;;6.66;65.89
76553;BME280;65395;53.168;18.156;2024-03-08T11:17:20;101798.89;;;6.72;64.77
76553;BME280;65395;53.168;18.156;2024-03-08T11:19:49;101797.93;;;6.79;65.18
76553;BME280;65395;53.168;18.156;2024-03-08T11:22:23;101789.41;;;6.88;65.34
76553;BME280;65395;53.168;18.156;2024-03-08T11:24:50;101793.02;;;6.97;65.28
76553;BME280;65395;53.168;18.156;2024-03-08T11:27:17;101787.48;;;7.06;65.55
76553;BME280;65395;53.168;18.156;2024-03-08T11:29:44;101786.38;;;7.16;65.25
76553;BME280;65395;53.168;18.156;2024-03-08T11:32:14;101786.56;;;7.26;65.03
76553;BME280;65395;53.168;18.156;2024-03-08T11:34:43;101780.45;;;7.36;65.04
76553;BME280;65395;53.168;18.156;2024-03-08T11:37:13;101781.17;;;7.45;64.34
76553;BME280;65395;53.168;18.156;2024-03-08T11:39:50;101780.64;;;7.54;64.73
76553;BME280;65395;53.168;18.156;2024-03-08T11:42:19;101772.39;;;7.62;64.44
76553;BME280;65395;53.168;18.156;2024-03-08T11:44:46;101768.88;;;7.69;63.65
76553;BME280;65395;53.168;18.156;2024-03-08T11:47:14;101761.58;;;7.72;62.57
76553;BME280;65395;53.168;18.156;2024-03-08T11:49:42;101762.88;;;7.75;63.02
76553;BME280;65395;53.168;18.156;2024-03-08T11:52:11;101762.18;;;7.80;63.52
76553;BME280;65395;53.168;18.156;2024-03-08T11:54:41;101757.84;;;7.84;62.80
76553;BME280;65395;53.168;18.156;2024-03-08T11:57:08;101755.59;;;7.84;63.02
76553;BME280;65395;53.168;18.156;2024-03-08T11:59:36;101752.46;;;7.87;63.44
76553;BME280;65395;53.168;18.156;2024-03-08T12:02:04;101744.78;;;7.96;63.57
76553;BME280;65395;53.168;18.156;2024-03-08T12:04:32;101744.19;;;8.05;63.25
76553;BME280;65395;53.168;18.156;2024-03-08T12:07:00;101742.09;;;8.13;63.09
76553;BME280;65395;53.168;18.156;2024-03-08T12:09:29;101741.46;;;8.21;62.91
76553;BME280;65395;53.168;18.156;2024-03-08T12:11:57;101736.98;;;8.30;61.89
76553;BME280;65395;53.168;18.156;2024-03-08T12:14:25;101731.35;;;8.36;62.13
76553;BME280;65395;53.168;18.156;2024-03-08T12:16:52;101728.98;;;8.45;62.33
76553;BME280;65395;53.168;18.156;2024-03-08T12:19:19;101723.67;;;8.54;60.93
76553;BME280;65395;53.168;18.156;2024-03-08T12:21:47;101722.33;;;8.59;61.13
76553;BME280;65395;53.168;18.156;2024-03-08T12:24:16;101722.90;;;8.64;59.40
76553;BME280;65395;53.168;18.156;2024-03-08T12:26:48;101720.19;;;8.70;60.75
76553;BME280;65395;53.168;18.156;2024-03-08T12:29:16;101720.85;;;8.77;59.78
76553;BME280;65395;53.168;18.156;2024-03-08T12:31:47;101718.57;;;8.85;59.75
76553;BME280;65395;53.168;18.156;2024-03-08T12:34:17;101718.09;;;8.94;59.28
76553;BME280;65395;53.168;18.156;2024-03-08T12:36:46;101712.42;;;9.02;59.39
76553;BME280;65395;53.168;18.156;2024-03-08T12:39:18;101712.85;;;9.12;59.35
76553;BME280;65395;53.168;18.156;2024-03-08T12:41:49;101710.60;;;9.25;59.10
76553;BME280;65395;53.168;18.156;2024-03-08T12:44:18;101704.11;;;9.35;58.30
76553;BME280;65395;53.168;18.156;2024-03-08T12:46:48;101703.05;;;9.48;58.39
76553;BME280;65395;53.168;18.156;2024-03-08T12:49:15;101700.25;;;9.60;58.16
76553;BME280;65395;53.168;18.156;2024-03-08T12:51:44;101701.22;;;9.70;57.91
76553;BME280;65395;53.168;18.156;2024-03-08T12:54:12;101697.98;;;9.81;57.74